Time;durP1;ratioP1;P1;durP2;ratioP2;P2;SDS_P1;SDS_P2;PMS_P1;PMS_P2;Temp;Humidity;BMP_temperature;BMP_pressure;BME280_temperature;BME280_humidity;BME280_pressure;Samples;Min_cycle;Max_cycle;Signal;HPM_P1;HPM_P2
2023/02/10 00:01:22;;;;;;;;;11.67;8.33;;;;;-3.56;70.30;100179.09;4898219;28;104112;-77
2023/02/10 00:03:50;;;;;;;;;16.33;12.00;;;;;-3.57;70.29;100175.59;4908685;28;101945;-77
2023/02/10 00:06:19;;;;;;;;;16.33;12.67;;;;;-3.54;70.25;100179.88;4922573;28;103601;-77
2023/02/10 00:08:49;;;;;;;;;18.00;15.33;;;;;-3.55;70.72;100180.78;4917135;28;102062;-77
2023/02/10 00:11:16;;;;;;;;;15.00;9.33;;;;;-3.55;70.01;100165.78;4915912;28;104227;-77
2023/02/10 00:13:44;;;;;;;;;11.33;9.33;;;;;-3.56;70.09;100163.25;4915863;28;102210;-77
2023/02/10 00:16:14;;;;;;;;;18.00;12.67;;;;;-3.60;70.71;100157.22;4916175;28;103036;-77
2023/02/10 00:18:42;;;;;;;;;7.67;7.00;;;;;-3.57;71.27;100148.31;4919043;28;102280;-77
2023/02/10 00:21:14;;;;;;;;;10.00;7.00;;;;;-3.66;70.84;100142.53;4922152;28;104054;-77
2023/02/10 00:23:42;;;;;;;;;23.67;16.00;;;;;-3.60;70.15;100144.88;4920093;28;102473;-77
2023/02/10 00:26:12;;;;;;;;;19.00;15.00;;;;;-3.67;71.45;100127.59;4917488;28;102112;-78
2023/02/10 00:28:39;;;;;;;;;20.33;14.33;;;;;-3.63;70.73;100126.53;4918637;28;102368;-77
2023/02/10 00:31:08;;;;;;;;;32.00;20.33;;;;;-3.60;70.49;100131.66;4917314;28;111051;-77
2023/02/10 00:33:36;;;;;;;;;20.67;18.00;;;;;-3.56;71.68;100126.22;4918397;28;102060;-77
2023/02/10 00:36:08;;;;;;;;;21.33;17.33;;;;;-3.54;70.99;100116.44;4917023;28;102228;-77
2023/02/10 00:38:36;;;;;;;;;15.67;14.33;;;;;-3.53;71.26;100119.00;4920073;28;102164;-78
2023/02/10 00:41:07;;;;;;;;;16.00;11.00;;;;;-3.52;71.02;100118.06;4917823;28;104322;-78
2023/02/10 00:43:34;;;;;;;;;17.33;15.00;;;;;-3.50;70.74;100120.63;4915547;28;102441;-77
2023/02/10 00:46:02;;;;;;;;;16.33;14.00;;;;;-3.49;71.40;100117.06;4920388;28;102393;-77
2023/02/10 00:48:29;;;;;;;;;6.33;4.00;;;;;-3.44;70.93;100130.91;4917214;28;101926;-77
2023/02/10 00:50:56;;;;;;;;;13.00;9.67;;;;;-3.45;70.47;100134.47;4917699;28;104156;-77
2023/02/10 00:53:23;;;;;;;;;18.67;14.00;;;;;-3.45;71.02;100145.06;4917479;28;102343;-77
2023/02/10 00:55:49;;;;;;;;;15.00;9.67;;;;;-3.45;71.18;100137.13;4910376;28;102073;-77
2023/02/10 00:58:16;;;;;;;;;14.33;12.33;;;;;-3.46;70.85;100149.47;4919415;28;102156;-77
2023/02/10 01:00:44;;;;;;;;;19.00;12.00;;;;;-3.45;70.69;100145.91;4916710;28;104043;-77
2023/02/10 01:03:11;;;;;;;;;34.00;29.33;;;;;-3.55;71.65;100143.78;4917637;28;102311;-76
2023/02/10 01:05:38;;;;;;;;;8.67;4.67;;;;;-3.48;71.21;100139.94;4923822;28;101996;-77
2023/02/10 01:08:05;;;;;;;;;20.00;14.67;;;;;-3.47;70.99;100141.66;4919401;28;102031;-77
2023/02/10 01:10:34;;;;;;;;;28.33;21.67;;;;;-3.46;71.72;100138.91;4915297;28;103678;-77
2023/02/10 01:13:02;;;;;;;;;18.67;13.00;;;;;-3.44;70.74;100141.47;4917375;28;102485;-77
2023/02/10 01:15:30;;;;;;;;;22.33;16.00;;;;;-3.45;70.75;100134.47;4918006;28;102138;-77
2023/02/10 01:17:57;;;;;;;;;18.67;16.00;;;;;-3.44;71.26;100134.41;4918319;28;101819;-77
2023/02/10 01:20:25;;;;;;;;;18.67;15.33;;;;;-3.43;71.02;100127.34;4916069;28;104315;-78
2023/02/10 01:22:52;;;;;;;;;24.00;21.67;;;;;-3.43;71.07;100122.91;4917752;28;102243;-78
2023/02/10 01:25:19;;;;;;;;;22.00;13.00;;;;;-3.44;70.87;100120.34;4916388;28;102333;-77
2023/02/10 01:27:46;;;;;;;;;16.67;15.33;;;;;-3.46;71.98;100122.19;4916968;28;102290;-77
2023/02/10 01:30:13;;;;;;;;;18.00;12.00;;;;;-3.43;71.49;100127.34;4915647;28;104005;-77
2023/02/10 01:32:40;;;;;;;;;16.33;13.00;;;;;-3.42;72.07;100121.94;4916241;28;102250;-77
2023/02/10 01:35:07;;;;;;;;;16.33;13.67;;;;;-3.50;71.06;100110.06;4915152;28;102007;-76
2023/02/10 01:37:37;;;;;;;;;17.00;11.67;;;;;-3.46;71.74;100111.59;4906386;28;102371;-77
2023/02/10 01:40:05;;;;;;;;;12.33;10.00;;;;;-3.41;71.09;100113.09;4904127;28;104175;-77
2023/02/10 01:42:32;;;;;;;;;16.00;12.33;;;;;-3.43;71.06;100108.84;4907486;28;102286;-78
2023/02/10 01:45:20;;;;;;;;;37.67;25.33;;;;;-3.44;71.22;100109.75;4911852;28;102100;-77
2023/02/10 01:47:51;;;;;;;;;29.00;23.33;;;;;-3.42;71.90;100108.72;4909916;28;102080;-77
2023/02/10 01:50:21;;;;;;;;;23.33;20.00;;;;;-3.44;71.72;100100.03;4910491;28;104081;-77
2023/02/10 01:52:48;;;;;;;;;24.00;16.67;;;;;-3.41;72.02;100093.72;4919431;28;102740;-77
2023/02/10 01:55:20;;;;;;;;;21.33;18.00;;;;;-3.43;71.30;100096.47;4915472;28;104025;-77
2023/02/10 01:57:49;;;;;;;;;28.33;19.33;;;;;-3.55;71.41;100082.97;4913568;28;102427;-77
2023/02/10 02:00:16;;;;;;;;;21.67;13.00;;;;;-3.50;72.07;100094.19;4909440;28;103978;-77
2023/02/10 02:02:44;;;;;;;;;14.00;10.33;;;;;-3.46;72.50;100104.53;4893394;28;102120;-77
2023/02/10 02:05:20;;;;;;;;;29.33;21.00;;;;;-3.53;72.41;100107.56;4913800;28;102265;-74
2023/02/10 02:07:57;;;;;;;;;21.00;18.67;;;;;-3.51;71.76;100103.91;4901406;28;102328;-77
2023/02/10 02:11:09;;;;;;;;;19.33;15.00;;;;;-3.50;71.58;100110.06;4913760;28;103394;-78
2023/02/10 02:14:06;;;;;;;;;16.33;12.33;;;;;-3.50;71.94;100094.19;4894405;28;101976;-77
2023/02/10 02:17:00;;;;;;;;;13.67;12.00;;;;;-3.53;72.19;100089.06;4908739;28;102071;-78
2023/02/10 02:23:54;;;;;;;;;15.67;13.00;;;;;-3.56;72.55;100086.59;4915255;28;108606;-77
2023/02/10 02:26:30;;;;;;;;;12.00;10.00;;;;;-3.56;72.13;100084.81;4879214;28;102353;-77
2023/02/10 02:29:18;;;;;;;;;18.00;10.00;;;;;-3.56;72.04;100092.72;4893696;28;102408;-78
2023/02/10 02:32:03;;;;;;;;;10.67;10.00;;;;;-3.59;71.78;100090.22;4902585;28;102143;-78
2023/02/10 02:34:34;;;;;;;;;11.33;9.00;;;;;-3.59;72.33;100095.50;4916828;28;104070;-78
2023/02/10 02:37:10;;;;;;;;;14.33;9.67;;;;;-3.77;71.80;100065.56;4910403;28;104690;-78
2023/02/10 02:39:37;;;;;;;;;15.00;7.67;;;;;-3.65;73.07;100091.38;4897535;28;102316;-78
2023/02/10 02:42:15;;;;;;;;;13.67;7.00;;;;;-3.67;72.19;100082.69;4906447;28;102368;-77
2023/02/10 02:44:53;;;;;;;;;14.33;10.00;;;;;-3.74;72.75;100056.66;4916465;28;107576;-77
2023/02/10 02:47:37;;;;;;;;;8.33;6.00;;;;;-3.67;72.59;100077.41;4913728;28;111174;-78
2023/02/10 02:50:20;;;;;;;;;15.67;11.33;;;;;-3.71;72.52;100080.25;4895382;28;102121;-78
2023/02/10 02:53:10;;;;;;;;;16.00;11.33;;;;;-3.74;72.33;100088.34;4910916;28;102378;-78
2023/02/10 02:55:43;;;;;;;;;13.00;11.33;;;;;-3.75;72.46;100089.28;4899179;28;108696;-78
2023/02/10 02:58:44;;;;;;;;;11.33;9.00;;;;;-3.78;73.22;100084.97;4905795;28;102718;-79
2023/02/10 03:01:24;;;;;;;;;22.00;14.33;;;;;-3.79;72.69;100093.00;4911270;28;102137;-76
2023/02/10 03:03:54;;;;;;;;;19.67;16.00;;;;;-3.88;72.12;100073.16;4903602;28;102409;-79
2023/02/10 03:06:21;;;;;;;;;24.33;21.00;;;;;-3.82;73.35;100082.56;4892704;28;104165;-79
2023/02/10 03:08:48;;;;;;;;;32.33;25.67;;;;;-3.83;73.10;100081.72;4904528;28;102053;-79
2023/02/10 03:11:16;;;;;;;;;21.00;20.33;;;;;-3.82;72.47;100086.06;4892481;28;105616;-78
2023/02/10 03:13:42;;;;;;;;;31.33;20.33;;;;;-3.82;73.19;100091.34;4883426;28;102109;-79
2023/02/10 03:16:09;;;;;;;;;24.33;19.00;;;;;-3.82;72.74;100086.06;4921111;28;104309;-79
2023/02/10 03:18:36;;;;;;;;;30.00;27.00;;;;;-3.81;73.27;100092.22;4905093;28;102447;-79
2023/02/10 03:21:04;;;;;;;;;23.00;18.00;;;;;-3.84;73.00;100090.59;4897446;28;102292;-78
2023/02/10 03:23:31;;;;;;;;;19.67;14.33;;;;;-3.81;73.04;100094.84;4912067;28;110109;-79
2023/02/10 03:26:01;;;;;;;;;21.00;18.00;;;;;-3.92;73.29;100076.91;4912839;28;104003;-79
2023/02/10 03:28:28;;;;;;;;;22.00;19.00;;;;;-3.83;72.64;100097.59;4907578;28;102852;-79
2023/02/10 03:30:55;;;;;;;;;20.67;15.00;;;;;-3.82;72.94;100082.56;4915201;28;102066;-79
2023/02/10 03:33:23;;;;;;;;;18.67;15.00;;;;;-3.84;73.21;100087.94;4906304;28;102146;-78
2023/02/10 03:35:51;;;;;;;;;21.00;16.67;;;;;-3.90;73.06;100074.16;4901768;28;104158;-78
2023/02/10 03:38:20;;;;;;;;;25.00;19.67;;;;;-3.90;73.03;100077.66;4898952;28;102423;-78
2023/02/10 03:40:52;;;;;;;;;31.00;27.00;;;;;-3.88;73.55;100080.25;4898829;28;102041;-78
2023/02/10 03:43:20;;;;;;;;;28.33;25.33;;;;;-3.87;72.58;100080.16;4912285;28;103447;-78
2023/02/10 03:45:47;;;;;;;;;29.00;21.33;;;;;-3.85;73.11;100072.16;4890707;28;104126;-78
2023/02/10 03:48:18;;;;;;;;;34.00;22.67;;;;;-3.85;72.44;100086.22;4899227;28;102614;-79
2023/02/10 03:50:45;;;;;;;;;27.67;19.67;;;;;-3.86;72.91;100092.44;4906394;28;101829;-79
2023/02/10 03:53:12;;;;;;;;;27.33;22.00;;;;;-3.85;73.03;100099.44;4888756;28;102423;-78
2023/02/10 03:55:39;;;;;;;;;21.67;18.67;;;;;-3.82;72.80;100099.28;4908589;28;104023;-79
2023/02/10 03:58:06;;;;;;;;;18.00;14.33;;;;;-3.82;72.41;100091.34;4911604;28;102447;-78
2023/02/10 04:00:33;;;;;;;;;25.67;16.67;;;;;-3.83;72.12;100080.88;4915333;28;102174;-78
2023/02/10 04:03:00;;;;;;;;;22.00;13.00;;;;;-4.37;72.00;99997.25;4916386;28;102471;-78
2023/02/10 04:05:27;;;;;;;;;21.67;16.67;;;;;-3.83;72.19;100096.72;4913070;28;104040;-78
2023/02/10 04:07:54;;;;;;;;;22.00;18.67;;;;;-3.86;72.30;100092.44;4913503;28;102325;-79
2023/02/10 04:10:21;;;;;;;;;22.00;14.33;;;;;-3.81;72.24;100105.41;4929204;28;102147;-78
2023/02/10 04:12:49;;;;;;;;;17.33;11.33;;;;;-3.79;72.27;100109.72;4914576;28;102415;-78
2023/02/10 04:15:16;;;;;;;;;16.67;10.00;;;;;-3.85;72.35;100101.22;4913369;28;103963;-78
2023/02/10 04:17:43;;;;;;;;;13.00;10.00;;;;;-3.81;71.61;100094.84;4914517;28;102458;-78
2023/02/10 04:20:11;;;;;;;;;12.33;9.33;;;;;-3.79;71.89;100109.72;4916324;28;102377;-79
2023/02/10 04:22:38;;;;;;;;;29.00;23.00;;;;;-3.82;71.83;100104.56;4923181;28;102646;-79
2023/02/10 04:25:06;;;;;;;;;12.00;7.67;;;;;-3.82;72.04;100101.91;4912604;28;103801;-78
2023/02/10 04:27:33;;;;;;;;;18.33;15.67;;;;;-3.85;71.85;100099.44;4945233;28;102121;-78
2023/02/10 04:30:00;;;;;;;;;21.67;16.67;;;;;-3.95;71.89;100081.44;4909675;28;102433;-78
2023/02/10 04:32:27;;;;;;;;;27.67;23.33;;;;;-3.91;72.33;100091.78;4916521;28;102148;-78
2023/02/10 04:34:54;;;;;;;;;19.00;16.00;;;;;-3.94;72.09;100093.72;4914569;28;104072;-78
2023/02/10 04:37:22;;;;;;;;;18.33;14.33;;;;;-3.96;72.15;100093.78;4915719;28;102501;-78
2023/02/10 04:39:48;;;;;;;;;21.33;12.00;;;;;-3.93;72.09;100106.88;4915114;28;102819;-78
2023/02/10 04:42:15;;;;;;;;;12.00;9.00;;;;;-3.95;72.46;100100.78;4912470;28;102027;-79
2023/02/10 04:44:42;;;;;;;;;14.33;11.33;;;;;-3.96;72.03;100096.44;4916239;28;104186;-79
2023/02/10 04:47:09;;;;;;;;;16.33;11.33;;;;;-3.98;71.75;100103.59;4920391;28;102827;-78
2023/02/10 04:49:36;;;;;;;;;11.33;9.00;;;;;-4.04;72.85;100098.59;4917062;28;104989;-79
2023/02/10 04:52:03;;;;;;;;;10.00;7.00;;;;;-4.15;72.53;100095.63;4926392;28;102433;-80
2023/02/10 04:54:30;;;;;;;;;12.00;9.00;;;;;-4.12;72.13;100106.03;4921946;28;103000;-79
2023/02/10 04:56:57;;;;;;;;;13.00;10.00;;;;;-4.42;72.13;100070.50;4915663;28;102154;-79
2023/02/10 04:59:24;;;;;;;;;9.00;9.00;;;;;-4.15;72.72;100122.91;4910586;28;101959;-79
2023/02/10 05:01:51;;;;;;;;;12.00;10.00;;;;;-4.18;73.10;100123.00;4916644;28;111121;-79
2023/02/10 05:04:19;;;;;;;;;8.33;7.67;;;;;-4.20;73.01;100124.03;4930428;28;104027;-79
2023/02/10 05:06:47;;;;;;;;;12.33;10.00;;;;;-4.24;72.78;100127.75;4917482;28;102082;-78
2023/02/10 05:09:14;;;;;;;;;7.67;7.00;;;;;-4.26;72.38;100121.66;4940883;28;101853;-79
2023/02/10 05:11:42;;;;;;;;;12.00;10.00;;;;;-4.30;72.92;100128.88;4925835;28;101957;-79
2023/02/10 05:14:09;;;;;;;;;10.00;7.00;;;;;-4.36;72.56;100123.88;4925679;28;108743;-79
2023/02/10 05:16:36;;;;;;;;;7.00;6.00;;;;;-4.41;73.63;100119.75;4972712;28;103035;-79
2023/02/10 05:19:03;;;;;;;;;6.67;4.67;;;;;-4.42;73.65;100123.31;4927918;28;102223;-79
2023/02/10 05:21:30;;;;;;;;;6.00;3.00;;;;;-4.44;73.87;100119.88;4919051;28;102051;-79
2023/02/10 05:23:58;;;;;;;;;5.33;5.33;;;;;-4.84;73.87;100058.34;4917751;28;104986;-79
2023/02/10 05:26:25;;;;;;;;;7.67;7.00;;;;;-4.50;74.01;100132.41;4916028;28;103656;-78
2023/02/10 05:28:52;;;;;;;;;11.67;7.00;;;;;-4.62;73.87;100118.91;4913308;28;102948;-78
2023/02/10 05:31:19;;;;;;;;;12.00;8.33;;;;;-4.51;74.44;100143.06;4918909;28;102107;-78
2023/02/10 05:33:46;;;;;;;;;14.33;10.00;;;;;-4.54;73.81;100146.69;4917617;28;104006;-78
2023/02/10 05:36:14;;;;;;;;;24.00;19.67;;;;;-4.58;74.87;100150.38;4916810;28;102367;-79
2023/02/10 05:39:22;;;;;;;;;18.67;14.33;;;;;-4.57;75.02;100152.09;4918081;28;102264;-79
2023/02/10 05:41:27;;;;;;;;;22.67;15.67;;;;;-4.54;74.55;100151.94;4916417;28;105416;-79
2023/02/10 05:43:54;;;;;;;;;22.00;13.67;;;;;-4.52;74.60;100165.09;4916858;28;104040;-79
2023/02/10 05:46:21;;;;;;;;;23.33;15.00;;;;;-4.51;73.72;100162.41;4914310;28;107145;-79
2023/02/10 05:48:48;;;;;;;;;16.67;14.33;;;;;-4.48;73.38;100171.09;4916975;28;101986;-79
2023/02/10 05:51:15;;;;;;;;;15.33;13.00;;;;;-4.46;73.59;100169.25;4912730;28;102412;-79
2023/02/10 05:53:42;;;;;;;;;28.67;22.00;;;;;-4.54;73.82;100173.06;4925509;28;104064;-78
2023/02/10 05:56:09;;;;;;;;;45.00;31.00;;;;;-4.58;74.13;100154.81;4911948;28;102083;-79
2023/02/10 05:58:36;;;;;;;;;42.25;31.25;;;;;-4.65;73.97;100141.03;4897379;28;102154;-79
2023/02/10 06:01:07;;;;;;;;;33.67;22.00;;;;;-4.54;73.68;100157.22;4903230;28;102540;-79
2023/02/10 06:03:34;;;;;;;;;34.33;25.00;;;;;-4.58;73.91;100160.94;4903340;28;104051;-79
2023/02/10 06:06:01;;;;;;;;;21.33;17.33;;;;;-4.51;73.85;100158.91;4915329;28;104552;-78
2023/02/10 06:08:29;;;;;;;;;21.33;16.00;;;;;-4.52;73.63;100165.94;4916993;28;102322;-78
2023/02/10 06:10:56;;;;;;;;;20.33;15.00;;;;;-4.52;73.44;100171.22;4915744;28;102407;-78
2023/02/10 06:13:23;;;;;;;;;19.67;12.33;;;;;-4.53;73.75;100164.22;4908362;28;104213;-78
2023/02/10 06:15:50;;;;;;;;;23.00;13.00;;;;;-4.59;74.34;100156.56;4915954;28;102146;-78
2023/02/10 06:18:17;;;;;;;;;12.00;10.00;;;;;-4.54;74.10;100167.78;4915771;28;104150;-78
2023/02/10 06:20:47;;;;;;;;;15.67;13.33;;;;;-4.51;73.89;100172.09;4917112;28;102272;-78
2023/02/10 06:23:14;;;;;;;;;12.67;12.67;;;;;-4.53;74.17;100164.22;4916759;28;104029;-79
2023/02/10 06:25:41;;;;;;;;;15.67;13.00;;;;;-4.51;73.73;100172.09;4919080;28;102346;-78
2023/02/10 06:28:08;;;;;;;;;15.33;13.00;;;;;-4.49;74.50;100186.06;4916093;28;102084;-79
2023/02/10 06:30:35;;;;;;;;;18.00;14.33;;;;;-4.46;73.81;100187.72;4918060;28;102406;-79
2023/02/10 06:33:02;;;;;;;;;11.33;7.00;;;;;-4.44;73.39;100183.22;4918127;28;104295;-78
2023/02/10 06:35:29;;;;;;;;;12.00;9.67;;;;;-4.44;73.75;100184.06;4915727;28;102571;-76
2023/02/10 06:37:56;;;;;;;;;19.67;18.33;;;;;-4.37;72.90;100195.22;4916838;28;102033;-79
2023/02/10 06:40:23;;;;;;;;;69.00;44.00;;;;;-4.32;73.05;100194.06;4915304;28;102049;-79
2023/02/10 06:42:50;;;;;;;;;42.25;35.50;;;;;-4.25;72.87;100199.94;4924360;28;104049;-79
2023/02/10 06:45:17;;;;;;;;;20.50;18.75;;;;;-4.23;73.12;100193.66;4917205;28;102053;-77
2023/02/10 06:47:44;;;;;;;;;40.33;27.00;;;;;-4.20;72.75;100193.53;4910540;28;102168;-78
2023/02/10 06:50:12;;;;;;;;;42.67;28.67;;;;;-4.10;72.16;100199.25;4917675;28;102392;-78
2023/02/10 06:52:39;;;;;;;;;24.33;21.00;;;;;-4.03;72.01;100195.41;4914827;28;108741;-80
2023/02/10 06:55:06;;;;;;;;;35.00;27.67;;;;;-3.98;72.38;100188.13;4916398;28;102300;-79
2023/02/10 06:57:35;;;;;;;;;31.67;24.67;;;;;-3.94;71.78;100189.69;4917013;28;102068;-79
2023/02/10 07:00:09;;;;;;;;;31.00;21.67;;;;;-3.82;71.61;100204.09;4915639;28;102221;-79
2023/02/10 07:02:36;;;;;;;;;27.00;23.33;;;;;-3.76;71.05;100204.69;4918342;28;104166;-78
2023/02/10 07:05:05;;;;;;;;;32.33;22.33;;;;;-3.73;70.10;100207.19;4919876;28;102231;-78
2023/02/10 07:07:32;;;;;;;;;30.67;24.00;;;;;-3.64;70.02;100201.47;4920901;28;102091;-76
2023/02/10 07:09:59;;;;;;;;;21.33;18.33;;;;;-3.54;70.09;100204.53;4916893;28;102150;-78
2023/02/10 07:12:26;;;;;;;;;29.33;25.00;;;;;-3.49;70.28;100196.38;4915231;28;104314;-77
2023/02/10 07:14:53;;;;;;;;;30.67;25.00;;;;;-3.40;68.63;100193.28;4914175;28;102294;-77
2023/02/10 07:17:21;;;;;;;;;30.33;24.67;;;;;-3.32;68.68;100191.97;4913087;28;102081;-79
2023/02/10 07:19:47;;;;;;;;;28.33;22.00;;;;;-3.24;68.22;100189.81;4916945;28;102998;-76
2023/02/10 07:22:14;;;;;;;;;44.67;39.00;;;;;-3.18;67.84;100186.00;4917349;28;104261;-77
2023/02/10 07:24:41;;;;;;;;;37.00;27.33;;;;;-3.07;68.23;100188.97;4915965;28;102432;-77
2023/02/10 07:27:09;;;;;;;;;42.33;32.33;;;;;-3.14;68.01;100166.41;4915679;28;103059;-78
2023/02/10 07:29:37;;;;;;;;;31.00;26.00;;;;;-2.94;66.83;100187.44;4914318;28;102108;-76
2023/02/10 07:32:04;;;;;;;;;45.33;37.00;;;;;-2.89;67.14;100188.06;4913175;28;104063;-77
2023/02/10 07:34:33;;;;;;;;;39.33;30.33;;;;;-2.78;66.01;100192.78;4914301;28;102884;-77
2023/02/10 07:37:01;;;;;;;;;43.67;31.00;;;;;-2.78;66.47;100184.84;4904286;28;102144;-78
2023/02/10 07:39:28;;;;;;;;;35.33;30.67;;;;;-2.66;65.37;100188.66;4909938;28;102095;-78
2023/02/10 07:41:55;;;;;;;;;41.33;37.00;;;;;-2.57;67.03;100193.50;4907851;28;104192;-78
2023/02/10 07:44:22;;;;;;;;;35.00;28.00;;;;;-2.53;66.22;100189.75;4911587;28;102199;-77
2023/02/10 07:46:51;;;;;;;;;49.00;32.67;;;;;-2.44;66.95;100200.72;4920935;28;102344;-77
2023/02/10 07:49:18;;;;;;;;;38.00;32.00;;;;;-2.43;66.28;100202.41;4921207;28;102152;-79
2023/02/10 07:51:45;;;;;;;;;35.33;26.33;;;;;-2.36;66.13;100187.06;4890153;28;104052;-77
2023/02/10 07:54:12;;;;;;;;;24.33;22.67;;;;;-2.27;64.45;100192.72;4898002;28;105378;-77
2023/02/10 07:56:39;;;;;;;;;43.00;31.33;;;;;-2.24;65.05;100191.69;4906387;28;102435;-81
2023/02/10 07:59:06;;;;;;;;;41.67;29.00;;;;;-2.05;64.05;100197.72;4903130;28;102358;-76
2023/02/10 08:01:40;;;;;;;;;30.67;20.67;;;;;-1.89;65.10;100205.72;4904315;28;103996;-77
2023/02/10 08:04:11;;;;;;;;;25.00;22.00;;;;;-1.83;63.58;100206.22;4904653;28;102077;-76
2023/02/10 08:06:38;;;;;;;;;34.67;27.67;;;;;-1.89;64.33;100209.19;4908335;28;103934;-76
2023/02/10 08:09:05;;;;;;;;;33.33;29.00;;;;;-1.68;63.56;100216.94;4905731;28;102159;-76
2023/02/10 08:11:32;;;;;;;;;40.00;30.33;;;;;-1.82;63.26;100202.63;4909342;28;103989;-76
2023/02/10 08:14:01;;;;;;;;;33.67;26.67;;;;;-1.56;63.21;100208.28;4908436;28;102225;-75
2023/02/10 08:16:29;;;;;;;;;30.67;18.67;;;;;-1.36;63.55;100208.88;4913137;28;102288;-77
2023/02/10 08:18:56;;;;;;;;;15.67;14.00;;;;;-1.19;62.44;100218.53;4913111;28;102369;-71
2023/02/10 08:21:26;;;;;;;;;27.00;21.00;;;;;-1.10;62.61;100214.50;4913982;28;104367;-70
2023/02/10 08:23:54;;;;;;;;;35.67;31.67;;;;;-1.18;62.60;100216.75;4912702;28;102773;-70
2023/02/10 08:26:24;;;;;;;;;37.33;33.33;;;;;-1.11;60.67;100216.28;4913766;28;102204;-70
2023/02/10 08:28:54;;;;;;;;;28.00;23.67;;;;;-0.99;61.38;100225.38;4909601;28;102533;-70
2023/02/10 08:31:21;;;;;;;;;43.00;33.67;;;;;-1.15;60.88;100219.22;4909803;28;104051;-70
2023/02/10 08:33:48;;;;;;;;;43.67;27.67;;;;;-1.06;60.58;100227.50;4913557;28;102471;-74
2023/02/10 08:36:18;;;;;;;;;20.00;19.00;;;;;-0.82;62.09;100229.69;4911174;28;102193;-76
2023/02/10 08:38:46;;;;;;;;;34.00;30.33;;;;;-0.83;60.09;100227.97;4914143;28;102491;-73
2023/02/10 08:41:13;;;;;;;;;32.67;27.33;;;;;-0.75;60.00;100220.41;4915190;28;103976;-72
2023/02/10 08:43:40;;;;;;;;;33.33;28.00;;;;;-0.77;61.06;100217.00;4915987;28;102622;-75
2023/02/10 08:46:07;;;;;;;;;41.00;32.33;;;;;-0.92;60.99;100230.22;4912246;28;102176;-75
2023/02/10 08:48:35;;;;;;;;;38.00;31.00;;;;;-0.80;60.91;100233.09;4915479;28;102939;-76
2023/02/10 08:51:09;;;;;;;;;32.67;26.33;;;;;-0.56;60.48;100226.34;4917801;28;104022;-76
2023/02/10 08:53:36;;;;;;;;;29.33;24.00;;;;;-0.54;60.33;100229.78;4918195;28;102396;-76
2023/02/10 08:56:06;;;;;;;;;36.33;29.00;;;;;-0.54;59.75;100235.91;4917716;28;102312;-76
2023/02/10 08:58:33;;;;;;;;;43.00;34.67;;;;;-0.72;59.69;100233.53;4918851;28;104927;-75
2023/02/10 09:01:01;;;;;;;;;50.00;32.00;;;;;-0.71;60.75;100237.84;4919944;28;103983;-76
2023/02/10 09:03:28;;;;;;;;;37.33;31.33;;;;;-0.87;60.62;100178.66;4918181;28;102269;-74
2023/02/10 09:05:55;;;;;;;;;31.00;25.00;;;;;-0.35;59.67;100230.38;4904506;28;102240;-75
2023/02/10 09:08:22;;;;;;;;;27.67;21.67;;;;;-0.17;59.62;100234.56;4903017;28;102543;-75
2023/02/10 09:10:49;;;;;;;;;31.67;26.33;;;;;-0.13;58.70;100241.41;4904781;28;104049;-75
2023/02/10 09:13:16;;;;;;;;;32.33;28.33;;;;;-0.45;58.21;100168.94;4911670;28;102193;-75
2023/02/10 09:15:43;;;;;;;;;38.00;34.67;;;;;-0.02;57.82;100238.94;4904059;28;102183;-72
2023/02/10 09:18:11;;;;;;;;;33.67;29.33;;;;;-0.01;58.23;100223.84;4947271;28;102155;-75
2023/02/10 09:20:38;;;;;;;;;32.67;29.00;;;;;0.19;57.45;100234.09;4913526;28;104029;-75
2023/02/10 09:23:05;;;;;;;;;44.33;35.00;;;;;0.06;57.34;100229.63;4916172;28;102033;-70
2023/02/10 09:25:32;;;;;;;;;34.33;29.00;;;;;0.34;57.91;100224.31;4921769;28;102209;-75
2023/02/10 09:27:59;;;;;;;;;33.67;26.00;;;;;0.22;57.48;100177.22;4911939;28;102081;-75
2023/02/10 09:30:27;;;;;;;;;34.67;29.33;;;;;0.67;56.72;100235.47;4913111;28;104176;-76
2023/02/10 09:32:54;;;;;;;;;28.33;23.33;;;;;0.78;56.36;100227.63;4945218;28;102401;-75
2023/02/10 09:35:21;;;;;;;;;30.67;26.00;;;;;0.80;55.63;100228.41;4912586;28;102397;-75
2023/02/10 09:37:49;;;;;;;;;27.67;24.00;;;;;0.70;55.89;100205.13;4912479;28;102339;-75
2023/02/10 09:40:25;;;;;;;;;26.00;20.00;;;;;0.88;56.30;100231.41;4911934;28;103780;-75
2023/02/10 09:43:14;;;;;;;;;30.00;23.00;;;;;0.93;56.74;100240.91;4909873;28;102987;-76
2023/02/10 09:45:42;;;;;;;;;34.33;26.67;;;;;0.68;56.17;100186.59;4913438;28;102975;-76
2023/02/10 09:48:31;;;;;;;;;31.00;27.00;;;;;1.17;55.47;100226.81;4928837;28;102065;-74
2023/02/10 09:51:14;;;;;;;;;26.67;22.67;;;;;1.23;55.56;100207.75;4942098;28;110381;-75
2023/02/10 09:53:41;;;;;;;;;31.33;24.33;;;;;1.44;55.35;100215.28;4909439;28;101989;-75
2023/02/10 09:56:16;;;;;;;;;29.67;25.33;;;;;1.45;53.45;100224.97;4911165;28;102196;-75
2023/02/10 09:58:53;;;;;;;;;30.00;14.00;;;;;1.61;53.91;100229.16;4913746;28;110034;-74
2023/02/10 10:01:19;;;;;;;;;32.00;24.33;;;;;1.67;53.74;100226.06;4912024;28;109319;-75
2023/02/10 10:03:59;;;;;;;;;33.33;26.67;;;;;1.45;53.26;100220.50;4913253;28;102386;-75
2023/02/10 10:06:34;;;;;;;;;38.33;32.00;;;;;1.15;54.46;100169.28;4909395;28;102273;-73
2023/02/10 10:09:07;;;;;;;;;30.67;24.67;;;;;1.61;53.65;100231.84;4913582;28;102803;-75
2023/02/10 10:11:52;;;;;;;;;34.67;29.67;;;;;1.67;54.88;100225.22;4915367;28;103472;-75
2023/02/10 10:14:19;;;;;;;;;33.67;29.67;;;;;1.64;52.96;100226.28;4915041;28;102254;-75
2023/02/10 10:16:52;;;;;;;;;30.33;26.67;;;;;1.71;52.60;100216.06;4918187;28;102336;-76
2023/02/10 10:19:35;;;;;;;;;24.67;23.00;;;;;1.78;53.10;100202.19;4919939;28;101931;-76
2023/02/10 10:22:36;;;;;;;;;37.33;33.00;;;;;1.69;53.68;100213.50;4911095;28;104007;-75
2023/02/10 10:25:23;;;;;;;;;48.00;37.33;;;;;1.70;53.64;100209.88;4914852;28;101927;-74
2023/02/10 10:28:10;;;;;;;;;35.33;27.33;;;;;1.98;53.80;100154.63;4917515;28;102495;-74
2023/02/10 10:30:46;;;;;;;;;34.00;28.50;;;;;2.56;52.83;100221.53;4902836;28;102298;-74
2023/02/10 10:33:34;;;;;;;;;39.67;27.00;;;;;2.46;53.65;100203.59;4912076;28;108927;-75
2023/02/10 10:36:02;;;;;;;;;36.75;30.00;;;;;2.53;52.69;100211.06;4897740;28;102336;-76
2023/02/10 10:38:32;;;;;;;;;30.00;26.75;;;;;2.46;52.08;100207.13;4895561;28;110276;-75
2023/02/10 10:41:05;;;;;;;;;33.00;29.00;;;;;2.00;53.69;100182.88;4907214;28;102072;-75
2023/02/10 10:43:45;;;;;;;;;46.00;35.67;;;;;2.07;52.77;100205.47;4912632;28;103991;-71
2023/02/10 10:46:26;;;;;;;;;42.00;32.67;;;;;2.11;52.90;100203.47;4912544;28;102014;-71
2023/02/10 10:48:54;;;;;;;;;35.00;28.00;;;;;2.01;53.51;100197.91;4901626;28;101999;-75
2023/02/10 10:51:21;;;;;;;;;38.67;30.00;;;;;2.03;53.48;100195.13;4916949;28;102009;-76
2023/02/10 10:53:53;;;;;;;;;40.00;28.67;;;;;2.03;53.37;100193.31;4911804;28;104034;-75
2023/02/10 10:56:23;;;;;;;;;31.00;26.00;;;;;2.11;52.98;100198.13;4917269;28;102350;-75
2023/02/10 10:58:51;;;;;;;;;38.00;32.33;;;;;1.84;54.28;100190.25;4917042;28;102648;-72
2023/02/10 11:01:34;;;;;;;;;41.67;38.00;;;;;1.60;53.81;100198.13;4905382;28;102645;-74
2023/02/10 11:04:06;;;;;;;;;33.33;29.00;;;;;1.96;55.24;100209.88;4911752;28;104714;-74
2023/02/10 11:06:36;;;;;;;;;45.00;36.67;;;;;1.98;54.55;100197.28;4916633;28;103154;-75
2023/02/10 11:09:07;;;;;;;;;45.33;38.00;;;;;1.41;55.80;100202.16;4915723;28;102296;-70
2023/02/10 11:11:40;;;;;;;;;50.00;31.33;;;;;1.43;56.35;100206.44;4917068;28;102113;-71
2023/02/10 11:14:17;;;;;;;;;44.00;38.00;;;;;1.39;55.86;100207.59;4912806;28;104040;-73
2023/02/10 11:16:53;;;;;;;;;34.67;31.00;;;;;1.61;54.61;100202.50;4915698;28;102106;-77
2023/02/10 11:19:23;;;;;;;;;40.00;34.00;;;;;1.72;55.60;100199.94;4917533;28;102086;-74
2023/02/10 11:21:51;;;;;;;;;35.67;32.67;;;;;1.60;55.03;100184.81;4918144;28;102011;-74